createdAt,value
2023-01-19T00:01:26.292Z,2.433
2023-01-19T00:03:26.411Z,2.428
2023-01-19T00:05:26.625Z,2.468
2023-01-19T00:07:26.309Z,2.470
2023-01-19T00:09:25.972Z,2.441
2023-01-19T00:11:26.436Z,2.486
2023-01-19T00:13:25.936Z,2.463
2023-01-19T00:15:26.473Z,2.546
2023-01-19T00:17:26.319Z,2.521
2023-01-19T00:19:26.304Z,2.516
2023-01-19T00:21:26.327Z,2.518
2023-01-19T00:22:26.184Z,2.519
2023-01-19T00:23:25.958Z,2.494
2023-01-19T00:25:26.112Z,2.494
2023-01-19T00:27:25.684Z,2.480
2023-01-19T00:28:26.440Z,2.448
2023-01-19T00:29:26.177Z,2.438
2023-01-19T00:31:25.955Z,2.461
2023-01-19T00:33:26.359Z,2.481
2023-01-19T00:34:26.095Z,2.481
2023-01-19T00:35:26.115Z,2.486
2023-01-19T00:37:25.930Z,2.497
2023-01-19T00:39:25.966Z,2.493
2023-01-19T00:41:25.947Z,2.478
2023-01-19T00:43:25.844Z,2.458
2023-01-19T00:45:26.580Z,2.502
2023-01-19T00:46:26.340Z,2.502
2023-01-19T00:47:26.009Z,2.528
2023-01-19T00:48:26.034Z,2.516
2023-01-19T00:49:25.959Z,2.504
2023-01-19T00:51:26.121Z,2.457
2023-01-19T00:52:25.867Z,2.457
2023-01-19T00:53:26.246Z,2.465
2023-01-19T00:54:27.589Z,2.473
2023-01-19T00:55:26.152Z,2.441
2023-01-19T00:57:26.098Z,2.457
2023-01-19T00:58:25.859Z,2.480
2023-01-19T00:59:26.385Z,2.470
2023-01-19T01:01:45.757Z,2.477
2023-01-19T01:03:26.531Z,2.483
2023-01-19T01:05:25.809Z,2.467
2023-01-19T01:07:26.053Z,2.491
2023-01-19T01:08:25.923Z,2.503
2023-01-19T01:09:26.326Z,2.484
2023-01-19T01:10:26.072Z,2.492
2023-01-19T01:11:25.685Z,2.488
2023-01-19T01:13:32.225Z,2.420
2023-01-19T01:14:26.054Z,2.420
2023-01-19T01:15:26.204Z,2.396
2023-01-19T01:17:25.807Z,2.376
2023-01-19T01:19:26.271Z,2.386
2023-01-19T01:21:25.763Z,2.403
2023-01-19T01:23:25.822Z,2.458
2023-01-19T01:24:26.121Z,2.453
2023-01-19T01:25:26.037Z,2.448
2023-01-19T01:27:26.191Z,2.436
2023-01-19T01:29:26.233Z,2.443
2023-01-19T01:31:26.302Z,2.421
2023-01-19T01:33:51.167Z,2.493
2023-01-19T01:35:26.373Z,2.526
2023-01-19T01:37:26.377Z,2.526
2023-01-19T01:39:26.966Z,2.548
2023-01-19T01:41:25.938Z,2.555
2023-01-19T01:43:26.113Z,2.561
2023-01-19T01:45:26.472Z,2.578
2023-01-19T01:47:26.176Z,2.561
2023-01-19T01:48:25.974Z,2.561
2023-01-19T01:49:26.350Z,2.568
2023-01-19T01:50:26.131Z,2.568
2023-01-19T01:51:25.700Z,2.563
2023-01-19T01:53:26.155Z,2.579
2023-01-19T01:54:25.824Z,2.578
2023-01-19T01:55:26.294Z,2.578
2023-01-19T01:56:25.652Z,2.578
2023-01-19T01:57:25.918Z,2.575
2023-01-19T01:59:26.002Z,2.571
2023-01-19T02:01:26.146Z,2.556
2023-01-19T02:03:26.134Z,2.541
2023-01-19T02:05:26.098Z,2.603
2023-01-19T02:07:26.024Z,2.599
2023-01-19T02:09:26.063Z,2.588
2023-01-19T02:10:25.710Z,2.588
2023-01-19T02:11:26.125Z,2.579
2023-01-19T02:12:25.820Z,2.579
2023-01-19T02:13:26.534Z,2.559
2023-01-19T02:15:26.057Z,2.569
2023-01-19T02:16:25.997Z,2.566
2023-01-19T02:17:25.617Z,2.519
2023-01-19T02:18:26.025Z,2.505
2023-01-19T02:19:25.875Z,2.5
2023-01-19T02:21:25.944Z,2.477
2023-01-19T02:22:25.858Z,2.483
2023-01-19T02:23:26.052Z,2.475
2023-01-19T02:24:25.656Z,2.446
2023-01-19T02:25:26.306Z,2.444
2023-01-19T02:27:25.710Z,2.435
2023-01-19T02:29:26.057Z,2.454
2023-01-19T02:30:26.110Z,2.453
2023-01-19T02:31:25.597Z,2.415
2023-01-19T02:33:25.661Z,2.412
2023-01-19T02:34:25.831Z,2.410
2023-01-19T02:35:26.359Z,2.397
2023-01-19T02:36:25.960Z,2.395
2023-01-19T02:37:25.782Z,2.402
2023-01-19T02:39:26.109Z,2.434
2023-01-19T02:41:25.865Z,2.430
2023-01-19T02:42:26.449Z,2.427
2023-01-19T02:43:25.651Z,2.416
2023-01-19T02:44:26.186Z,2.434
2023-01-19T02:45:26.075Z,2.471
2023-01-19T02:46:26.035Z,2.483
2023-01-19T02:47:25.824Z,2.5
2023-01-19T02:49:25.863Z,2.505
2023-01-19T02:51:26.328Z,2.518
2023-01-19T02:52:25.738Z,2.513
2023-01-19T02:53:25.998Z,2.539
2023-01-19T02:55:25.966Z,2.535
2023-01-19T02:56:26.075Z,2.538
2023-01-19T02:57:26.141Z,2.535
2023-01-19T02:58:25.951Z,2.561
2023-01-19T02:59:25.985Z,2.568
2023-01-19T03:03:26.211Z,2.543
2023-01-19T03:04:26.051Z,2.573
2023-01-19T03:05:25.821Z,2.571
2023-01-19T03:06:26.166Z,2.588
2023-01-19T03:07:25.738Z,2.576
2023-01-19T03:08:26.047Z,2.576
2023-01-19T03:09:25.712Z,2.568
2023-01-19T03:10:26.291Z,2.578
2023-01-19T03:11:26.118Z,2.573
2023-01-19T03:12:26.183Z,2.563
2023-01-19T03:13:25.872Z,2.543
2023-01-19T03:14:26.565Z,2.543
2023-01-19T03:15:26.063Z,2.525
2023-01-19T03:17:26.089Z,2.548
2023-01-19T03:19:26.094Z,2.566
2023-01-19T03:21:26.069Z,2.573
2023-01-19T03:22:26.243Z,2.578
2023-01-19T03:23:25.660Z,2.585
2023-01-19T03:24:26.240Z,2.586
2023-01-19T03:25:26.031Z,2.569
2023-01-19T03:27:26.327Z,2.595
2023-01-19T03:28:25.816Z,2.595
2023-01-19T03:29:25.995Z,2.598
2023-01-19T03:31:25.987Z,2.599
2023-01-19T03:33:26.483Z,2.569
2023-01-19T03:35:25.935Z,2.566
2023-01-19T03:37:26.263Z,2.583
2023-01-19T03:39:25.952Z,2.599
2023-01-19T03:41:26.298Z,2.613
2023-01-19T03:42:26.161Z,2.601
2023-01-19T03:43:26.187Z,2.613
2023-01-19T03:45:26.109Z,2.606
2023-01-19T03:47:25.857Z,2.583
2023-01-19T03:49:26.259Z,2.578
2023-01-19T03:50:26.262Z,2.596
2023-01-19T03:51:26.110Z,2.606
2023-01-19T03:52:26.279Z,2.658
2023-01-19T03:53:26.490Z,2.634
2023-01-19T03:55:25.938Z,2.614
2023-01-19T03:57:26.211Z,2.598
2023-01-19T03:59:25.915Z,2.575
2023-01-19T04:01:26.363Z,2.558
2023-01-19T04:03:26.356Z,2.536
2023-01-19T04:05:26.301Z,2.517
2023-01-19T04:06:26.515Z,2.507
2023-01-19T04:07:26.346Z,2.539
2023-01-19T04:09:29.465Z,2.532
2023-01-19T04:11:27.374Z,2.516
2023-01-19T04:13:26.597Z,2.565
2023-01-19T04:15:26.548Z,2.595
2023-01-19T04:17:26.668Z,2.618
2023-01-19T04:19:26.435Z,2.592
2023-01-19T04:20:26.605Z,2.611
2023-01-19T04:21:26.964Z,2.633
2023-01-19T04:23:26.905Z,2.650
2023-01-19T04:25:26.791Z,2.701
2023-01-19T04:26:26.928Z,2.706
2023-01-19T04:27:27.172Z,2.696
2023-01-19T04:29:26.749Z,2.688
2023-01-19T04:31:26.323Z,2.713
2023-01-19T04:32:26.218Z,2.728
2023-01-19T04:33:26.026Z,2.724
2023-01-19T04:35:26.239Z,2.741
2023-01-19T04:36:26.088Z,2.759
2023-01-19T04:37:25.988Z,2.783
2023-01-19T04:39:25.807Z,2.813
2023-01-19T04:41:26.146Z,2.835
2023-01-19T04:43:26.173Z,2.829
2023-01-19T04:44:25.972Z,2.813
2023-01-19T04:45:26.660Z,2.865
2023-01-19T04:47:26.601Z,2.868
2023-01-19T04:49:26.308Z,2.849
2023-01-19T04:51:26.109Z,2.871
2023-01-19T04:53:25.987Z,2.880
2023-01-19T04:55:26.579Z,2.903
2023-01-19T04:57:26.416Z,2.903
2023-01-19T04:58:26.201Z,2.886
2023-01-19T04:59:26.356Z,2.851
2023-01-19T05:01:26.506Z,2.829
2023-01-19T05:03:26.935Z,2.818
2023-01-19T05:04:26.363Z,2.829
2023-01-19T05:05:26.467Z,2.856
2023-01-19T05:06:26.342Z,2.846
2023-01-19T05:07:26.512Z,2.846
2023-01-19T05:09:26.316Z,2.818
2023-01-19T05:11:26.425Z,2.849
2023-01-19T05:13:26.213Z,2.838
2023-01-19T05:15:26.430Z,2.843
2023-01-19T05:16:25.809Z,2.845
2023-01-19T05:17:26.375Z,2.829
2023-01-19T05:19:26.095Z,2.845
2023-01-19T05:20:26.459Z,2.829
2023-01-19T05:21:26.124Z,2.845
2023-01-19T05:22:26.360Z,2.849
2023-01-19T05:23:26.285Z,2.866
2023-01-19T05:25:26.104Z,2.916
2023-01-19T05:27:25.954Z,2.944
2023-01-19T05:29:26.337Z,2.900
2023-01-19T05:31:29.579Z,2.915
2023-01-19T05:33:26.682Z,2.888
2023-01-19T05:35:36.602Z,2.888
2023-01-19T05:37:25.736Z,2.897
2023-01-19T05:38:35.595Z,2.885
2023-01-19T05:39:26.080Z,2.885
2023-01-19T05:41:26.272Z,2.915
2023-01-19T05:43:25.551Z,2.908
2023-01-19T05:44:26.568Z,2.908
2023-01-19T05:45:26.779Z,2.951
2023-01-19T05:47:26.266Z,2.957
2023-01-19T05:49:26.223Z,2.993
2023-01-19T05:51:26.382Z,3.035
2023-01-19T05:52:26.288Z,3.059
2023-01-19T05:53:26.114Z,3.062
2023-01-19T05:54:25.976Z,3.038
2023-01-19T05:55:26.703Z,3.047
2023-01-19T05:56:26.275Z,3.082
2023-01-19T05:57:26.047Z,3.181
2023-01-19T05:59:26.209Z,3.131
2023-01-19T06:01:30.989Z,3.115
2023-01-19T06:03:26.584Z,3.128
2023-01-19T06:05:26.590Z,3.190
2023-01-19T06:07:28.287Z,3.201
2023-01-19T06:09:26.371Z,3.193
2023-01-19T06:11:26.256Z,3.183
2023-01-19T06:12:26.521Z,3.143
2023-01-19T06:13:26.370Z,3.115
2023-01-19T06:14:26.205Z,3.115
2023-01-19T06:15:26.221Z,3.136
2023-01-19T06:17:26.353Z,3.141
2023-01-19T06:19:26.455Z,3.143
2023-01-19T06:21:26.707Z,3.138
2023-01-19T06:22:26.415Z,3.138
2023-01-19T06:23:26.485Z,3.133
2023-01-19T06:25:26.557Z,3.208
2023-01-19T06:27:26.380Z,3.170
2023-01-19T06:28:26.371Z,3.186
2023-01-19T06:29:28.040Z,3.184
2023-01-19T06:31:40.649Z,3.193
2023-01-19T06:33:26.121Z,3.218
2023-01-19T06:34:26.496Z,3.183
2023-01-19T06:35:26.197Z,3.200
2023-01-19T06:37:26.059Z,3.141
2023-01-19T06:39:26.538Z,3.105
2023-01-19T06:41:26.608Z,3.066
2023-01-19T06:43:26.793Z,3.023
2023-01-19T06:45:26.964Z,2.971
2023-01-19T06:47:26.450Z,2.940
2023-01-19T06:49:26.239Z,2.964
2023-01-19T06:51:26.591Z,2.991
2023-01-19T06:53:25.706Z,2.981
2023-01-19T06:55:27.955Z,3
2023-01-19T06:56:25.921Z,2.994
2023-01-19T06:57:26.062Z,2.964
2023-01-19T06:59:26.423Z,2.986
2023-01-19T07:01:26.332Z,2.997
2023-01-19T07:02:38.135Z,2.972
2023-01-19T07:03:26.275Z,2.972
2023-01-19T07:04:26.356Z,2.976
2023-01-19T07:05:26.028Z,2.981
2023-01-19T07:06:26.330Z,2.980
2023-01-19T07:07:26.165Z,3.009
2023-01-19T07:09:27.030Z,3.038
2023-01-19T07:10:26.306Z,3.038
2023-01-19T07:11:42.612Z,3.043
2023-01-19T07:12:26.533Z,3.043
2023-01-19T07:13:26.926Z,2.990
2023-01-19T07:15:26.500Z,3.019
2023-01-19T07:17:26.469Z,3.032
2023-01-19T07:18:26.508Z,3.032
2023-01-19T07:19:26.474Z,3.075
2023-01-19T07:21:29.056Z,3.072
2023-01-19T07:24:25.691Z,3.084
2023-01-19T07:25:26.747Z,3.068
2023-01-19T07:27:26.217Z,3.012
2023-01-19T07:29:26.309Z,3.037
2023-01-19T07:30:26.721Z,3.052
2023-01-19T07:31:26.645Z,3.005
2023-01-19T07:33:26.611Z,2.993
2023-01-19T07:34:26.252Z,3
2023-01-19T07:35:26.143Z,3.001
2023-01-19T07:36:25.880Z,3.016
2023-01-19T07:37:26.692Z,3.071
2023-01-19T07:39:26.697Z,2.953
2023-01-19T07:41:26.347Z,2.950
2023-01-19T07:42:26.188Z,2.958
2023-01-19T07:43:26.290Z,2.956
2023-01-19T07:44:26.184Z,2.923
2023-01-19T07:45:27.890Z,2.858
2023-01-19T07:47:26.183Z,2.798
2023-01-19T07:48:26.413Z,2.765
2023-01-19T07:49:26.278Z,2.806
2023-01-19T07:51:26.365Z,2.826
2023-01-19T07:52:26.335Z,2.811
2023-01-19T07:53:26.251Z,2.769
2023-01-19T07:55:26.250Z,2.703
2023-01-19T07:57:26.183Z,2.658
2023-01-19T07:59:26.236Z,2.633
2023-01-19T08:00:27.158Z,2.625
2023-01-19T08:01:26.534Z,2.688
2023-01-19T08:03:26.206Z,2.688
2023-01-19T08:04:26.279Z,2.636
2023-01-19T08:05:26.133Z,2.661
2023-01-19T08:07:26.127Z,2.704
2023-01-19T08:09:26.460Z,2.693
2023-01-19T08:10:26.207Z,2.693
2023-01-19T08:11:26.065Z,2.621
2023-01-19T08:12:26.242Z,2.621
2023-01-19T08:13:26.345Z,2.670
2023-01-19T08:14:26.076Z,2.680
2023-01-19T08:15:25.866Z,2.631
2023-01-19T08:17:26.198Z,2.635
2023-01-19T08:18:26.152Z,2.698
2023-01-19T08:19:26.191Z,2.673
2023-01-19T08:21:26.031Z,2.662
2023-01-19T08:22:26.173Z,2.713
2023-01-19T08:23:26.495Z,2.730
2023-01-19T08:24:26.512Z,2.716
2023-01-19T08:25:26.707Z,2.706
2023-01-19T08:26:26.834Z,2.708
2023-01-19T08:27:26.446Z,2.713
2023-01-19T08:28:26.312Z,2.710
2023-01-19T08:29:26.844Z,2.716
2023-01-19T08:30:31.953Z,2.788
2023-01-19T08:31:31.492Z,2.791
2023-01-19T08:33:26.554Z,2.734
2023-01-19T08:35:26.604Z,2.718
2023-01-19T08:36:26.375Z,2.714
2023-01-19T08:37:26.788Z,2.748
2023-01-19T08:39:27.487Z,2.781
2023-01-19T08:41:26.983Z,2.776
2023-01-19T08:43:27.005Z,2.829
2023-01-19T08:45:26.609Z,2.803
2023-01-19T08:47:26.970Z,2.795
2023-01-19T08:48:26.490Z,2.795
2023-01-19T08:49:26.954Z,2.838
2023-01-19T08:51:26.726Z,2.833
2023-01-19T08:52:26.790Z,2.829
2023-01-19T08:53:27.080Z,2.881
2023-01-19T08:55:27.030Z,2.911
2023-01-19T08:57:26.988Z,2.921
2023-01-19T08:58:26.354Z,2.886
2023-01-19T08:59:26.985Z,2.891
2023-01-19T09:01:27.477Z,2.913
2023-01-19T09:03:26.583Z,2.883
2023-01-19T09:05:27.371Z,2.883
2023-01-19T09:07:26.776Z,2.890
2023-01-19T09:09:26.877Z,2.936
2023-01-19T09:11:27.181Z,2.903
2023-01-19T09:13:26.809Z,2.908
2023-01-19T09:15:27.181Z,2.910
2023-01-19T09:17:26.862Z,2.911
2023-01-19T09:18:26.970Z,2.917
2023-01-19T09:19:27.260Z,3.036
2023-01-19T09:20:26.527Z,3.036
2023-01-19T09:21:26.558Z,3.019
2023-01-19T09:22:26.934Z,2.983
2023-01-19T09:23:26.822Z,3
2023-01-19T09:25:26.422Z,2.985
2023-01-19T09:26:26.763Z,3.012
2023-01-19T09:27:27.353Z,3.019
2023-01-19T09:28:26.562Z,3.019
2023-01-19T09:29:26.602Z,3.065
2023-01-19T09:31:27.096Z,3.102
2023-01-19T09:32:26.755Z,3.135
2023-01-19T09:33:27.127Z,3.155
2023-01-19T09:34:26.537Z,3.164
2023-01-19T09:35:26.538Z,3.197
2023-01-19T09:36:26.874Z,3.243
2023-01-19T09:37:27.393Z,3.221
2023-01-19T09:39:27.593Z,3.227
2023-01-19T09:40:27.186Z,3.227
2023-01-19T09:41:29.063Z,3.238
2023-01-19T09:42:26.587Z,3.238
2023-01-19T09:43:26.810Z,3.251
2023-01-19T09:45:27.609Z,3.279
2023-01-19T09:46:26.839Z,3.279
2023-01-19T09:47:27.162Z,3.296
2023-01-19T09:48:26.379Z,3.321
2023-01-19T09:49:26.978Z,3.336
2023-01-19T09:52:54.743Z,3.346
2023-01-19T09:53:26.939Z,3.346
2023-01-19T09:55:27.011Z,3.315
2023-01-19T09:57:27.117Z,3.303
2023-01-19T09:58:26.569Z,3.318
2023-01-19T09:59:26.994Z,3.349
2023-01-19T10:01:26.775Z,3.336
2023-01-19T10:02:27.014Z,3.346
2023-01-19T10:03:26.697Z,3.339
2023-01-19T10:05:26.963Z,3.376
2023-01-19T10:07:26.508Z,3.380
2023-01-19T10:08:26.526Z,3.396
2023-01-19T10:09:26.536Z,3.406
2023-01-19T10:11:31.855Z,3.413
2023-01-19T10:12:29.880Z,3.398
2023-01-19T10:13:26.707Z,3.391
2023-01-19T10:15:27.128Z,3.381
2023-01-19T10:17:26.751Z,3.398
2023-01-19T10:19:26.431Z,3.418
2023-01-19T10:21:27.076Z,3.450
2023-01-19T10:22:26.841Z,3.450
2023-01-19T10:23:26.475Z,3.388
2023-01-19T10:25:26.937Z,3.436
2023-01-19T10:27:26.141Z,3.433
2023-01-19T10:28:26.419Z,3.433
2023-01-19T10:29:26.808Z,3.431
2023-01-19T10:31:27.190Z,3.416
2023-01-19T10:33:27.281Z,3.423
2023-01-19T10:34:31.645Z,3.453
2023-01-19T10:35:27.077Z,3.453
2023-01-19T10:36:26.639Z,3.451
2023-01-19T10:37:27.314Z,3.421
2023-01-19T10:39:26.654Z,3.438
2023-01-19T10:41:26.614Z,3.483
2023-01-19T10:43:27.074Z,3.507
2023-01-19T10:45:27.894Z,3.506
2023-01-19T10:46:26.975Z,3.506
2023-01-19T10:47:26.437Z,3.505
2023-01-19T10:48:26.764Z,3.517
2023-01-19T10:49:26.943Z,3.538
2023-01-19T10:51:26.222Z,3.562
2023-01-19T10:53:26.623Z,3.618
2023-01-19T10:55:27.557Z,3.641
2023-01-19T10:56:26.564Z,3.674
2023-01-19T10:57:31.309Z,3.711
2023-01-19T10:59:32.117Z,3.723
2023-01-19T11:00:27.601Z,3.723
2023-01-19T11:01:34.990Z,3.759
2023-01-19T11:03:27.100Z,3.784
2023-01-19T11:04:26.867Z,3.855
2023-01-19T11:05:27.365Z,3.796
2023-01-19T11:07:27.038Z,3.772
2023-01-19T11:08:25.971Z,3.772
2023-01-19T11:09:41.103Z,3.779
2023-01-19T11:10:26.446Z,3.779
2023-01-19T11:11:26.600Z,3.789
2023-01-19T11:13:41.131Z,3.833
2023-01-19T11:14:27.083Z,3.833
2023-01-19T11:15:26.430Z,3.838
2023-01-19T11:16:26.689Z,3.875
2023-01-19T11:17:26.849Z,3.828
2023-01-19T11:19:26.715Z,3.829
2023-01-19T11:21:26.922Z,3.865
2023-01-19T11:23:26.128Z,3.881
2023-01-19T11:25:32.176Z,3.873
2023-01-19T11:26:26.527Z,3.873
2023-01-19T11:27:26.860Z,3.938
2023-01-19T11:29:26.793Z,3.893
2023-01-19T11:31:27.152Z,3.944
2023-01-19T11:33:27.409Z,3.983
2023-01-19T11:35:27.381Z,3.980
2023-01-19T11:37:26.751Z,4.033
2023-01-19T11:39:27.016Z,4.170
2023-01-19T11:40:26.735Z,4.216
2023-01-19T11:41:26.746Z,4.246
2023-01-19T11:42:26.848Z,4.315
2023-01-19T11:43:30.162Z,4.358
2023-01-19T11:44:26.525Z,4.353
2023-01-19T11:45:26.916Z,4.348
2023-01-19T11:47:27.137Z,4.376
2023-01-19T11:48:26.714Z,4.400
2023-01-19T11:49:27.160Z,3.700
2023-01-19T17:57:26.928Z,3.130
2023-01-19T17:59:26.728Z,3.109
2023-01-19T18:01:27.853Z,3.068
2023-01-19T18:03:27.034Z,3.076
2023-01-19T18:05:27.020Z,3.055
2023-01-19T18:07:26.860Z,3.056
2023-01-19T18:09:26.623Z,3.069
2023-01-19T18:11:26.792Z,3.031
2023-01-19T18:12:31.817Z,3.006
2023-01-19T18:13:27.110Z,2.983
2023-01-19T18:15:27.358Z,2.984
2023-01-19T18:17:26.653Z,2.957
2023-01-19T18:19:26.706Z,2.888
2023-01-19T18:21:26.743Z,2.880
2023-01-19T18:23:27.348Z,2.874
2023-01-19T18:25:27.562Z,2.868
2023-01-19T18:27:27.378Z,2.854
2023-01-19T18:29:27.740Z,2.848
2023-01-19T18:31:28.032Z,2.829
2023-01-19T18:33:27.363Z,2.854
2023-01-19T18:35:28.002Z,2.874
2023-01-19T18:37:27.359Z,2.874
2023-01-19T18:38:27.244Z,2.885
2023-01-19T18:39:27.111Z,2.871
2023-01-19T18:41:29.720Z,2.849
2023-01-19T18:43:26.885Z,2.851
2023-01-19T18:45:27.327Z,2.819
2023-01-19T18:46:25.243Z,2.819
2023-01-19T18:47:26.878Z,2.811
2023-01-19T18:49:27.886Z,2.781
2023-01-19T18:51:26.836Z,2.730
2023-01-19T18:53:26.630Z,2.650
2023-01-19T18:55:27.275Z,2.611
2023-01-19T18:56:49.688Z,2.603
2023-01-19T18:57:27.459Z,2.589
2023-01-19T18:59:26.779Z,2.575
2023-01-19T19:01:26.910Z,2.494
2023-01-19T19:03:27.084Z,2.458
2023-01-19T19:05:26.945Z,2.446
2023-01-19T19:06:27.308Z,2.450
2023-01-19T19:07:27.152Z,2.428
2023-01-19T19:08:27.063Z,2.424
2023-01-19T19:09:27.455Z,2.416
2023-01-19T19:11:27.415Z,2.414
2023-01-19T19:12:27.238Z,2.414
2023-01-19T19:13:27.245Z,2.443
2023-01-19T19:15:27.033Z,2.440
2023-01-19T19:16:26.885Z,2.448
2023-01-19T19:17:27.499Z,2.444
2023-01-19T19:19:27.333Z,2.426
2023-01-19T19:21:27.137Z,2.436
2023-01-19T19:23:27.498Z,2.401
2023-01-19T19:25:27.023Z,2.424
2023-01-19T19:27:27.402Z,2.406
2023-01-19T19:29:27.061Z,2.438
2023-01-19T19:31:27.491Z,2.461
2023-01-19T19:33:26.688Z,2.493
2023-01-19T19:35:26.883Z,2.513
2023-01-19T19:37:26.328Z,2.543
2023-01-19T19:39:27.496Z,2.513
2023-01-19T19:41:26.950Z,2.505
2023-01-19T19:43:27.035Z,2.521
2023-01-19T19:45:27.309Z,2.525
2023-01-19T19:47:27.150Z,2.523
2023-01-19T19:48:26.331Z,2.548
2023-01-19T19:49:26.557Z,2.548
2023-01-19T19:51:29.495Z,2.563
2023-01-19T19:53:26.493Z,2.558
2023-01-19T19:55:27.733Z,2.552
2023-01-19T19:57:27.228Z,2.552
2023-01-19T19:59:27.579Z,2.555
2023-01-19T20:01:28.566Z,2.558
2023-01-19T20:03:26.512Z,2.562
2023-01-19T20:05:26.716Z,2.562
2023-01-19T20:07:28.437Z,2.558
2023-01-19T20:09:26.692Z,2.555
2023-01-19T20:11:26.676Z,2.547
2023-01-19T20:13:26.592Z,2.557
2023-01-19T20:15:27.247Z,2.591
2023-01-19T20:17:26.964Z,2.588
2023-01-19T20:19:27.343Z,2.589
2023-01-19T20:21:26.504Z,2.623
2023-01-19T20:23:27.281Z,2.661
2023-01-19T20:25:26.908Z,2.663
2023-01-19T20:26:27.005Z,2.676
2023-01-19T20:27:27.043Z,2.656
2023-01-19T20:29:28.134Z,2.650
2023-01-19T20:31:27.084Z,2.651
2023-01-19T20:33:26.848Z,2.638
2023-01-19T20:35:31.886Z,2.656
2023-01-19T20:37:32.108Z,2.640
2023-01-19T20:39:27.060Z,2.648
2023-01-19T20:41:27.850Z,2.630
2023-01-19T20:43:27.189Z,2.641
2023-01-19T20:45:27.366Z,2.654
2023-01-19T20:47:27.744Z,2.680
2023-01-19T20:49:27.392Z,2.674
2023-01-19T20:51:27.068Z,2.668
2023-01-19T20:52:26.428Z,2.668
2023-01-19T20:53:27.522Z,2.698
2023-01-19T20:55:27.638Z,2.681
2023-01-19T20:57:32.537Z,2.680
2023-01-19T20:59:26.869Z,2.693
2023-01-19T21:01:27.381Z,2.683
2023-01-19T21:03:27.581Z,2.683
2023-01-19T21:05:27.573Z,2.660
2023-01-19T21:07:45.992Z,2.684
2023-01-19T21:09:27.483Z,2.691
2023-01-19T21:11:27.436Z,2.698
2023-01-19T21:13:27.637Z,2.736
2023-01-19T21:15:27.697Z,2.748
2023-01-19T21:17:27.060Z,2.731
2023-01-19T21:19:26.958Z,2.756
2023-01-19T21:21:40.524Z,2.802
2023-01-19T21:23:26.516Z,2.805
2023-01-19T21:24:26.685Z,2.798
2023-01-19T21:25:27.219Z,2.802
2023-01-19T21:27:26.651Z,2.791
2023-01-19T21:28:26.749Z,2.799
2023-01-19T21:29:27.261Z,2.772
2023-01-19T21:31:54.658Z,2.776
2023-01-19T21:33:27.064Z,2.784
2023-01-19T21:34:26.791Z,2.789
2023-01-19T21:35:26.591Z,2.785
2023-01-19T21:36:26.628Z,2.793
2023-01-19T21:37:26.801Z,2.798
2023-01-19T21:39:27.310Z,2.808
2023-01-19T21:41:26.574Z,2.803
2023-01-19T21:43:27.039Z,2.838
2023-01-19T21:45:26.921Z,2.839
2023-01-19T21:47:26.481Z,2.841
2023-01-19T21:49:26.952Z,2.825
2023-01-19T21:51:26.690Z,2.803
2023-01-19T21:53:27.295Z,2.798
2023-01-19T21:55:27.183Z,2.791
2023-01-19T21:56:26.565Z,2.788
2023-01-19T21:57:26.610Z,2.781
2023-01-19T21:59:29.256Z,2.759
2023-01-19T22:01:27.792Z,2.763
2023-01-19T22:03:02.370Z,2.753
2023-01-19T22:03:27.311Z,2.746
2023-01-19T22:05:26.673Z,2.736
2023-01-19T22:07:26.416Z,2.743
2023-01-19T22:09:26.414Z,2.75
2023-01-19T22:11:26.064Z,2.758
2023-01-19T22:13:26.529Z,2.753
2023-01-19T22:15:26.971Z,2.763
2023-01-19T22:17:26.172Z,2.766
2023-01-19T22:19:26.861Z,2.761
2023-01-19T22:21:26.633Z,2.768
2023-01-19T22:22:26.724Z,2.769
2023-01-19T22:23:26.771Z,2.779
2023-01-19T22:25:26.753Z,2.796
2023-01-19T22:27:26.630Z,2.785
2023-01-19T22:29:26.308Z,2.781
2023-01-19T22:31:27.242Z,2.763
2023-01-19T22:33:26.318Z,2.766
2023-01-19T22:35:27.008Z,2.769
2023-01-19T22:37:26.990Z,2.788
2023-01-19T22:39:26.817Z,2.781
2023-01-19T22:41:27.233Z,2.769
2023-01-19T22:43:26.868Z,2.773
2023-01-19T22:45:27.175Z,2.785
2023-01-19T22:47:27.202Z,2.801
2023-01-19T22:49:27.331Z,2.808
2023-01-19T22:51:26.318Z,2.811
2023-01-19T22:53:27.151Z,2.803
2023-01-19T22:55:27.705Z,2.795
2023-01-19T22:56:32.168Z,2.791
2023-01-19T22:57:26.067Z,2.802
2023-01-19T22:58:31.366Z,2.798
2023-01-19T22:59:26.471Z,2.788
2023-01-19T23:01:26.864Z,2.768
2023-01-19T23:02:30.516Z,2.768
2023-01-19T23:03:26.389Z,2.759
2023-01-19T23:05:27.699Z,2.723
2023-01-19T23:07:27.125Z,2.717
2023-01-19T23:09:26.273Z,2.707
2023-01-19T23:11:26.881Z,2.667
2023-01-19T23:13:26.854Z,2.641
2023-01-19T23:15:26.835Z,2.641
2023-01-19T23:16:40.760Z,2.648
2023-01-19T23:17:26.832Z,2.648
2023-01-19T23:18:26.835Z,2.641
2023-01-19T23:19:27.047Z,2.601
2023-01-19T23:21:26.257Z,2.572
2023-01-19T23:23:27.123Z,2.539
2023-01-19T23:25:26.423Z,2.528
2023-01-19T23:27:26.262Z,2.518
2023-01-19T23:28:26.600Z,2.507
2023-01-19T23:29:26.344Z,2.467
2023-01-19T23:31:26.880Z,2.481
2023-01-19T23:33:26.549Z,2.471
2023-01-19T23:34:45.320Z,2.473
2023-01-19T23:35:26.497Z,2.464
2023-01-19T23:37:26.502Z,2.448
2023-01-19T23:39:26.402Z,2.428
2023-01-19T23:41:26.480Z,2.421
2023-01-19T23:43:25.946Z,2.411
2023-01-19T23:45:26.859Z,2.413
2023-01-19T23:47:26.891Z,2.381
2023-01-19T23:49:26.325Z,2.381
2023-01-19T23:50:26.436Z,2.336
2023-01-19T23:51:26.409Z,2.289
2023-01-19T23:53:25.684Z,2.279
2023-01-19T23:55:26.736Z,2.289
2023-01-19T23:57:26.783Z,2.278
2023-01-19T23:59:26.086Z,2.221
